createdAt,value
2022-12-18T00:11:22.786Z,994.8
2022-12-18T00:25:56.404Z,994.8
2022-12-18T00:40:28.717Z,994.7
2022-12-18T00:55:06.991Z,994.8
2022-12-18T01:09:36.341Z,994.7
2022-12-18T01:24:07.913Z,994.7
2022-12-18T01:38:40.406Z,994.5
2022-12-18T01:53:13.623Z,994.6
2022-12-18T02:07:47.264Z,994.5
2022-12-18T02:22:22.265Z,994.4
2022-12-18T02:36:54.512Z,994.7
2022-12-18T02:51:28.853Z,994.5
2022-12-18T03:06:00.415Z,994.5
2022-12-18T03:20:34.788Z,994.3
2022-12-18T03:35:06.642Z,994.3
2022-12-18T03:49:40.199Z,994.1
2022-12-18T04:04:10.441Z,994.1
2022-12-18T04:18:48.862Z,994.1
2022-12-18T04:33:19.169Z,994.1
2022-12-18T04:47:52.987Z,994.2
2022-12-18T05:02:31.733Z,994
2022-12-18T05:17:01.839Z,994.1
2022-12-18T05:31:40.316Z,994.1
2022-12-18T05:46:08.882Z,994
2022-12-18T06:00:41.307Z,993.9
2022-12-18T06:15:16.457Z,994.2
2022-12-18T06:29:48.602Z,994.2
2022-12-18T06:44:21.527Z,994.4
2022-12-18T06:58:54.459Z,994.5
2022-12-18T07:13:30.227Z,994.3
2022-12-18T07:28:00.270Z,994.2
2022-12-18T07:42:36.635Z,994.3
2022-12-18T07:57:50.907Z,994.3
2022-12-18T08:12:09.628Z,994
2022-12-18T08:27:29.599Z,994.1
2022-12-18T08:41:45.592Z,993.7
2022-12-18T08:56:24.197Z,993.7
2022-12-18T09:10:57.581Z,993.6
2022-12-18T09:25:34.915Z,993.6
2022-12-18T09:40:17.261Z,993.5
2022-12-18T09:54:43.353Z,993.4
2022-12-18T10:09:16.430Z,993.5
2022-12-18T10:23:50.627Z,993.3
2022-12-18T10:38:25.170Z,992.9
2022-12-18T10:52:58.663Z,992.6
2022-12-18T11:07:38.215Z,992.5
2022-12-18T11:22:09.326Z,992.5
2022-12-18T11:36:43.775Z,992.4
2022-12-18T11:51:19.204Z,992.4
2022-12-18T12:05:50.078Z,992
2022-12-18T12:20:24.556Z,992
2022-12-18T12:35:09.945Z,992.1
2022-12-18T13:13:47.032Z,991.9
2022-12-18T13:27:39.486Z,991.9
2022-12-18T13:42:14.895Z,992
2022-12-18T13:56:48.848Z,991.9
2022-12-18T14:11:23.193Z,991.8
2022-12-18T14:25:55.169Z,991.9
2022-12-18T14:40:28.077Z,991.7
2022-12-18T14:55:00.837Z,991.5
2022-12-18T15:09:33.593Z,991.4
2022-12-18T15:24:05.835Z,991.2
2022-12-18T15:38:41.618Z,991.2
2022-12-18T15:53:12.648Z,991.2
2022-12-18T16:07:46.307Z,991.4
2022-12-18T16:22:22.077Z,991.3
2022-12-18T16:36:54.174Z,991
2022-12-18T16:51:26.829Z,991.3
2022-12-18T17:06:00.293Z,991.1
2022-12-18T17:20:33.067Z,991
2022-12-18T17:35:08.097Z,990.9
2022-12-18T17:49:42.811Z,990.9
2022-12-18T18:04:17.373Z,990.8
2022-12-18T18:18:48.769Z,991.1
2022-12-18T18:33:23.530Z,991
2022-12-18T18:47:58.771Z,990.9
2022-12-18T19:02:31.084Z,990.8
2022-12-18T19:17:07.285Z,990.9
2022-12-18T19:31:38.191Z,990.9
2022-12-18T19:46:12.149Z,990.8
2022-12-18T20:00:44.853Z,990.9
2022-12-18T20:15:18.191Z,990.9
2022-12-18T20:29:51.748Z,990.9
2022-12-18T20:44:26.992Z,990.9
2022-12-18T20:59:00.903Z,990.8
2022-12-18T21:13:34.553Z,990.8
2022-12-18T21:28:08.219Z,990.9
2022-12-18T21:42:43.042Z,990.9
2022-12-18T21:57:15.996Z,990.7
2022-12-18T22:11:48.832Z,990.6
2022-12-18T22:26:22.243Z,990.3
2022-12-18T22:40:56.181Z,990.1
2022-12-18T22:55:29.689Z,990
2022-12-18T23:10:03.287Z,989.9
2022-12-18T23:24:36.872Z,989.7
2022-12-18T23:39:28.423Z,989.5
2022-12-18T23:53:55.869Z,989.5
